Time;durP1;ratioP1;P1;durP2;ratioP2;P2;SDS_P1;SDS_P2;PMS_P1;PMS_P2;Temp;Humidity;BMP_temperature;BMP_pressure;BME280_temperature;BME280_humidity;BME280_pressure;Samples;Min_cycle;Max_cycle;Signal;HPM_P1;HPM_P2
2022/07/08 00:02:01;;;;;;;10.85;2.20;;;15.60;99.90;;;;;;5090514;28;20093;-84
2022/07/08 00:04:27;;;;;;;9.45;1.58;;;15.60;99.90;;;;;;5090061;28;20044;-84
2022/07/08 00:06:53;;;;;;;11.70;2.38;;;15.50;99.90;;;;;;5073435;28;20051;-84
2022/07/08 00:09:18;;;;;;;12.05;2.25;;;15.50;99.90;;;;;;5089514;28;20040;-83
2022/07/08 00:11:44;;;;;;;7.35;1.48;;;15.50;99.90;;;;;;5090814;28;20028;-83
2022/07/08 00:14:10;;;;;;;11.35;2.25;;;15.50;99.90;;;;;;5073613;28;20032;-84
2022/07/08 00:16:40;;;;;;;9.18;2.20;;;15.50;99.90;;;;;;5073852;28;20036;-84
2022/07/08 00:19:14;;;;;;;10.30;1.75;;;15.50;99.90;;;;;;5090533;28;20036;-84
2022/07/08 00:21:49;;;;;;;13.85;2.35;;;15.40;99.90;;;;;;5090339;28;20078;-84
2022/07/08 00:24:16;;;;;;;9.38;1.80;;;15.40;99.90;;;;;;5089601;28;20040;-84
2022/07/08 00:26:43;;;;;;;10.60;2.20;;;15.30;99.90;;;;;;5089608;28;20028;-84
2022/07/08 00:29:09;;;;;;;6.43;1.75;;;15.30;99.90;;;;;;5073149;28;20031;-83
2022/07/08 00:31:35;;;;;;;11.95;2.42;;;15.20;99.90;;;;;;5089853;28;20451;-83
2022/07/08 00:34:01;;;;;;;12.90;2.40;;;15.20;99.90;;;;;;5073325;28;20032;-83
2022/07/08 00:36:27;;;;;;;9.32;1.60;;;15.20;99.90;;;;;;5090195;28;20472;-84
2022/07/08 00:38:52;;;;;;;10.68;2.53;;;15.00;99.90;;;;;;5090137;28;20036;-83
2022/07/08 00:41:18;;;;;;;11.48;2.40;;;15.10;99.90;;;;;;5090578;28;20092;-83
2022/07/08 00:43:45;;;;;;;13.80;2.90;;;15.00;99.90;;;;;;5088413;28;20040;-83
2022/07/08 00:46:12;;;;;;;7.95;1.88;;;15.00;99.90;;;;;;5089493;28;20047;-83
2022/07/08 00:48:38;;;;;;;10.80;2.80;;;14.90;99.90;;;;;;5089855;28;20047;-83
2022/07/08 00:51:06;;;;;;;14.43;2.58;;;14.90;99.90;;;;;;5088872;28;20032;-83
2022/07/08 00:53:33;;;;;;;9.27;2.20;;;14.90;99.90;;;;;;5070117;28;20170;-84
2022/07/08 00:56:00;;;;;;;10.77;2.30;;;14.80;99.90;;;;;;5070103;28;20052;-84
2022/07/08 00:58:26;;;;;;;12.57;2.30;;;14.80;99.90;;;;;;5087353;28;20134;-83
2022/07/08 01:00:53;;;;;;;7.32;1.60;;;14.80;99.90;;;;;;5072442;28;20505;-83
2022/07/08 01:03:19;;;;;;;14.30;2.78;;;14.70;99.90;;;;;;5088390;28;20040;-83
2022/07/08 01:05:45;;;;;;;11.77;2.50;;;14.70;99.90;;;;;;5072013;28;20127;-83
2022/07/08 01:08:11;;;;;;;12.43;2.30;;;14.70;99.90;;;;;;5072958;28;20032;-83
2022/07/08 01:10:37;;;;;;;11.70;2.40;;;14.60;99.90;;;;;;5071983;28;20122;-83
2022/07/08 01:13:04;;;;;;;8.10;1.48;;;14.70;99.90;;;;;;5089919;28;20559;-83
2022/07/08 01:15:30;;;;;;;12.00;2.35;;;14.60;99.90;;;;;;5089374;28;20086;-83
2022/07/08 01:17:56;;;;;;;12.13;2.63;;;14.60;99.90;;;;;;5089806;28;20150;-83
2022/07/08 01:20:21;;;;;;;10.02;2.15;;;14.50;99.90;;;;;;5072966;28;20460;-83
2022/07/08 01:22:47;;;;;;;8.52;1.70;;;14.50;99.90;;;;;;5071912;28;20050;-83
2022/07/08 01:25:13;;;;;;;13.60;2.08;;;14.40;99.90;;;;;;5089060;28;20090;-83
2022/07/08 01:27:38;;;;;;;8.80;2.20;;;14.30;99.90;;;;;;5088795;28;20040;-84
2022/07/08 01:30:05;;;;;;;13.52;2.78;;;14.30;99.90;;;;;;5089028;28;20040;-83
2022/07/08 01:32:42;;;;;;;11.27;1.95;;;14.40;99.90;;;;;;5089356;28;20036;-83
2022/07/08 01:35:08;;;;;;;13.48;2.95;;;14.30;99.90;;;;;;5089609;28;20032;-83
2022/07/08 01:37:35;;;;;;;7.43;1.90;;;14.30;99.90;;;;;;5072414;28;20047;-84
2022/07/08 01:40:00;;;;;;;10.98;2.75;;;14.20;99.90;;;;;;5072873;28;20040;-83
2022/07/08 01:42:26;;;;;;;13.48;2.40;;;14.20;99.90;;;;;;5071734;28;20436;-83
2022/07/08 01:44:52;;;;;;;11.68;2.83;;;14.10;99.90;;;;;;5071877;28;20032;-83
2022/07/08 01:47:19;;;;;;;13.68;1.90;;;14.10;99.90;;;;;;5088514;28;20040;-83
2022/07/08 01:49:45;;;;;;;11.73;2.88;;;14.10;99.90;;;;;;5088940;28;20078;-83
2022/07/08 01:52:10;;;;;;;7.25;1.67;;;14.10;99.90;;;;;;5072376;28;20028;-83
2022/07/08 01:54:36;;;;;;;15.70;3.30;;;14.00;99.90;;;;;;5089331;28;20040;-83
2022/07/08 01:57:14;;;;;;;8.48;2.15;;;14.00;99.90;;;;;;5089462;28;20437;-83
2022/07/08 01:59:43;;;;;;;10.43;2.28;;;14.00;99.90;;;;;;5071866;28;20079;-83
2022/07/08 02:02:10;;;;;;;15.43;3.08;;;13.90;99.90;;;;;;5072635;28;20039;-83
2022/07/08 02:04:36;;;;;;;6.75;1.85;;;13.80;99.90;;;;;;5071570;28;20044;-83
2022/07/08 02:07:02;;;;;;;9.30;2.00;;;13.80;99.90;;;;;;5071800;28;20088;-83
2022/07/08 02:09:28;;;;;;;12.98;2.00;;;13.70;99.90;;;;;;5071971;28;20097;-83
2022/07/08 02:14:38;;;;;;;10.40;2.90;;;13.70;99.90;;;;;;5092485;28;20040;-83
2022/07/08 02:17:04;;;;;;;11.73;2.40;;;13.70;99.90;;;;;;5075524;28;20036;-83
2022/07/08 02:19:31;;;;;;;10.45;1.88;;;13.60;99.90;;;;;;5076070;28;20040;-83
2022/07/08 02:21:56;;;;;;;6.60;1.70;;;13.60;99.90;;;;;;5076358;28;20105;-83
2022/07/08 02:24:22;;;;;;;8.27;2.38;;;13.50;99.90;;;;;;5074734;28;20068;-83
2022/07/08 02:26:47;;;;;;;10.95;3.03;;;13.50;99.90;;;;;;5092108;28;20039;-83
2022/07/08 02:29:13;;;;;;;11.07;3.00;;;13.40;99.90;;;;;;5092440;28;20147;-83
2022/07/08 02:31:38;;;;;;;11.52;2.67;;;13.40;99.90;;;;;;5091947;28;20449;-83
2022/07/08 02:34:04;;;;;;;13.77;3.40;;;13.40;99.90;;;;;;5075551;28;20036;-83
2022/07/08 02:36:30;;;;;;;10.65;2.33;;;13.40;99.90;;;;;;5092820;28;20119;-83
2022/07/08 02:38:55;;;;;;;10.05;2.38;;;13.40;99.90;;;;;;5091981;28;20489;-83
2022/07/08 02:41:21;;;;;;;11.55;3.20;;;13.40;99.90;;;;;;5074874;28;20067;-83
2022/07/08 02:43:46;;;;;;;7.88;1.83;;;13.30;99.90;;;;;;5090793;28;20040;-83
2022/07/08 02:46:12;;;;;;;8.90;1.90;;;13.30;99.90;;;;;;5075151;28;20036;-83
2022/07/08 02:48:38;;;;;;;8.18;2.17;;;13.30;99.90;;;;;;5091616;28;20036;-83
2022/07/08 02:51:03;;;;;;;14.13;3.17;;;13.20;99.90;;;;;;5075301;28;20406;-83
2022/07/08 02:53:29;;;;;;;13.32;1.95;;;13.30;99.90;;;;;;5091430;28;20034;-83
2022/07/08 02:55:54;;;;;;;8.98;1.83;;;13.20;99.90;;;;;;5092791;28;20040;-83
2022/07/08 02:58:20;;;;;;;12.73;3.25;;;13.10;99.90;;;;;;5091762;28;20054;-83
2022/07/08 03:00:46;;;;;;;9.38;2.00;;;13.20;99.90;;;;;;5091999;28;20043;-83
2022/07/08 03:03:11;;;;;;;8.35;2.15;;;13.10;99.90;;;;;;5091968;28;20124;-83
2022/07/08 03:05:37;;;;;;;10.20;2.00;;;13.10;99.90;;;;;;5090827;28;20044;-83
2022/07/08 03:08:03;;;;;;;9.02;2.10;;;13.10;99.90;;;;;;5091083;28;20047;-83
2022/07/08 03:10:28;;;;;;;11.25;2.47;;;13.00;99.90;;;;;;5073495;28;20071;-83
2022/07/08 03:12:54;;;;;;;9.93;1.98;;;13.00;99.90;;;;;;5091688;28;20048;-83
2022/07/08 03:15:19;;;;;;;14.55;2.45;;;12.90;99.90;;;;;;5075330;28;20060;-83
2022/07/08 03:17:45;;;;;;;8.32;2.35;;;12.90;99.90;;;;;;5074510;28;20074;-83
2022/07/08 03:20:11;;;;;;;6.15;1.83;;;12.90;99.90;;;;;;5075062;28;20147;-83
2022/07/08 03:22:37;;;;;;;12.05;2.00;;;12.90;99.90;;;;;;5074508;28;20417;-83
2022/07/08 03:25:03;;;;;;;11.85;2.83;;;12.90;99.90;;;;;;5072878;28;20039;-83
2022/07/08 03:27:28;;;;;;;11.05;2.55;;;13.00;99.90;;;;;;5073606;28;20044;-83
2022/07/08 03:29:54;;;;;;;10.15;2.33;;;13.00;99.90;;;;;;5085102;28;20055;-81
2022/07/08 03:32:19;;;;;;;10.55;2.33;;;12.90;99.90;;;;;;5091441;28;20036;-83
2022/07/08 03:34:45;;;;;;;14.40;2.97;;;12.90;99.90;;;;;;5073682;28;20433;-82
2022/07/08 03:37:11;;;;;;;9.10;2.03;;;13.00;99.90;;;;;;5091922;28;20040;-82
2022/07/08 03:39:36;;;;;;;8.90;2.30;;;12.90;99.90;;;;;;5090300;28;20047;-82
2022/07/08 03:42:02;;;;;;;9.05;2.22;;;12.90;99.90;;;;;;5074979;28;20044;-82
2022/07/08 03:44:28;;;;;;;10.15;2.20;;;12.90;99.90;;;;;;5089909;28;20413;-82
2022/07/08 03:46:53;;;;;;;9.93;2.25;;;12.90;99.90;;;;;;5090959;28;20047;-83
2022/07/08 03:49:19;;;;;;;11.05;2.35;;;13.00;99.90;;;;;;5090909;28;20055;-83
2022/07/08 03:51:44;;;;;;;12.10;2.50;;;13.00;99.90;;;;;;5090622;28;20504;-83
2022/07/08 03:54:10;;;;;;;12.25;2.80;;;13.00;99.90;;;;;;5090817;28;20550;-83
2022/07/08 03:56:35;;;;;;;11.90;2.13;;;13.00;99.90;;;;;;5091478;28;20028;-83
2022/07/08 03:59:02;;;;;;;10.90;2.63;;;13.10;99.90;;;;;;5090479;28;20040;-82
2022/07/08 04:01:28;;;;;;;8.07;2.05;;;13.00;99.90;;;;;;5074428;28;20047;-83
2022/07/08 04:03:53;;;;;;;15.90;3.67;;;13.00;99.90;;;;;;5090232;28;20707;-83
2022/07/08 04:06:19;;;;;;;10.57;3.00;;;13.00;99.90;;;;;;5089543;28;20036;-83
2022/07/08 04:08:44;;;;;;;10.15;2.45;;;13.10;99.90;;;;;;5090377;28;20039;-83
2022/07/08 04:11:11;;;;;;;10.30;2.40;;;13.00;99.90;;;;;;5089628;28;20139;-83
2022/07/08 04:13:37;;;;;;;10.60;2.97;;;12.90;99.90;;;;;;5090576;28;20036;-83
2022/07/08 04:16:05;;;;;;;8.07;2.20;;;12.90;99.90;;;;;;5089216;28;20036;-83
2022/07/08 04:18:31;;;;;;;12.18;2.72;;;12.90;99.90;;;;;;5089929;28;20489;-83
2022/07/08 04:20:57;;;;;;;10.80;2.65;;;12.90;99.90;;;;;;5090629;28;20058;-83
2022/07/08 04:23:23;;;;;;;10.70;2.78;;;12.90;99.90;;;;;;5089228;28;20031;-84
2022/07/08 04:25:49;;;;;;;10.60;3.50;;;12.90;99.90;;;;;;5071902;28;20387;-84
2022/07/08 04:28:15;;;;;;;10.82;2.13;;;12.90;99.90;;;;;;5089035;28;20464;-84
2022/07/08 04:30:41;;;;;;;9.13;2.20;;;12.90;99.90;;;;;;5089623;28;20110;-83
2022/07/08 04:33:08;;;;;;;12.70;2.75;;;12.90;99.90;;;;;;5088295;28;20516;-83
2022/07/08 04:35:34;;;;;;;11.65;2.45;;;12.90;99.90;;;;;;5088800;28;20161;-83
2022/07/08 04:38:00;;;;;;;11.27;3.03;;;13.00;99.90;;;;;;5089613;28;20137;-83
2022/07/08 04:40:25;;;;;;;11.00;2.45;;;13.10;99.90;;;;;;5088906;28;20044;-83
2022/07/08 04:42:51;;;;;;;10.20;1.98;;;13.10;99.90;;;;;;5090091;28;20043;-83
2022/07/08 04:45:16;;;;;;;8.52;2.10;;;13.10;99.90;;;;;;5088168;28;20043;-83
2022/07/08 04:47:42;;;;;;;12.10;3.30;;;13.20;99.90;;;;;;5071732;28;20036;-83
2022/07/08 04:50:08;;;;;;;10.98;3.35;;;13.20;99.90;;;;;;5071791;28;20036;-83
2022/07/08 04:52:33;;;;;;;5.85;2.05;;;13.30;99.90;;;;;;5071308;28;20028;-83
2022/07/08 04:54:59;;;;;;;10.00;2.33;;;13.40;99.90;;;;;;5089821;28;20043;-83
2022/07/08 04:57:25;;;;;;;12.48;3.05;;;13.30;99.90;;;;;;5072539;28;20043;-83
2022/07/08 04:59:50;;;;;;;14.15;3.30;;;13.30;99.90;;;;;;5089573;28;20570;-83
2022/07/08 05:02:16;;;;;;;8.90;2.38;;;13.50;99.90;;;;;;5089930;28;20524;-84
2022/07/08 05:04:41;;;;;;;14.32;3.38;;;13.40;99.90;;;;;;5088507;28;20534;-84
2022/07/08 05:07:07;;;;;;;11.00;2.83;;;13.50;99.90;;;;;;5087966;28;20048;-84
2022/07/08 05:09:33;;;;;;;9.32;2.38;;;13.60;99.90;;;;;;5088254;28;20039;-83
2022/07/08 05:11:58;;;;;;;11.25;3.08;;;13.60;99.90;;;;;;5089170;28;20032;-82
2022/07/08 05:14:24;;;;;;;12.60;2.58;;;13.60;99.90;;;;;;5089478;28;20047;-83
2022/07/08 05:16:49;;;;;;;10.70;2.65;;;13.70;99.90;;;;;;5088945;28;20032;-82
2022/07/08 05:19:15;;;;;;;12.77;3.17;;;13.70;99.90;;;;;;5089060;28;20079;-83
2022/07/08 05:21:40;;;;;;;9.82;2.53;;;13.80;99.90;;;;;;5087627;28;20493;-82
2022/07/08 05:24:07;;;;;;;10.88;2.08;;;13.80;99.90;;;;;;5089224;28;20150;-82
2022/07/08 05:26:33;;;;;;;11.88;3.63;;;13.80;99.90;;;;;;5071067;28;20086;-83
2022/07/08 05:28:59;;;;;;;9.98;2.70;;;13.80;99.90;;;;;;5087741;28;20533;-83
2022/07/08 05:31:25;;;;;;;15.77;2.83;;;13.90;99.90;;;;;;5088798;28;20036;-83
2022/07/08 05:33:50;;;;;;;12.95;2.65;;;13.90;99.90;;;;;;5071360;28;20108;-83
2022/07/08 05:36:16;;;;;;;8.07;2.08;;;13.90;99.90;;;;;;5088932;28;20047;-83
2022/07/08 05:38:41;;;;;;;9.77;2.38;;;14.00;99.90;;;;;;5089334;28;20044;-83
2022/07/08 05:41:07;;;;;;;14.15;2.88;;;14.10;99.90;;;;;;5088341;28;20051;-83
2022/07/08 05:43:32;;;;;;;12.73;2.92;;;14.20;99.90;;;;;;5072665;28;20035;-83
2022/07/08 05:45:58;;;;;;;14.15;3.05;;;14.40;99.90;;;;;;5071301;28;20508;-84
2022/07/08 05:48:24;;;;;;;13.57;3.88;;;14.50;99.90;;;;;;5072523;28;20036;-84
2022/07/08 05:50:50;;;;;;;14.02;3.08;;;14.60;99.90;;;;;;5092711;28;20099;-84
2022/07/08 05:53:16;;;;;;;10.07;2.20;;;14.70;99.90;;;;;;5091964;28;20619;-84
2022/07/08 05:55:43;;;;;;;13.02;3.47;;;14.80;99.90;;;;;;5077099;28;20044;-84
2022/07/08 05:58:09;;;;;;;14.52;2.60;;;14.90;99.90;;;;;;5093702;28;20048;-84
2022/07/08 06:00:34;;;;;;;11.20;2.95;;;14.90;99.90;;;;;;5075586;28;20039;-84
2022/07/08 06:03:00;;;;;;;13.20;3.22;;;15.00;99.90;;;;;;5093766;28;20424;-84
2022/07/08 06:05:26;;;;;;;13.32;3.17;;;15.10;99.90;;;;;;5075660;28;20148;-84
2022/07/08 06:07:52;;;;;;;12.68;2.90;;;15.10;99.90;;;;;;5091921;28;20123;-84
2022/07/08 06:10:18;;;;;;;12.43;3.22;;;15.20;99.90;;;;;;5090069;28;20039;-84
2022/07/08 06:12:43;;;;;;;11.57;2.92;;;15.30;99.90;;;;;;5091584;28;20082;-84
2022/07/08 06:15:13;;;;;;;12.32;2.45;;;15.40;99.90;;;;;;5074904;28;20040;-84
2022/07/08 06:17:39;;;;;;;12.73;3.05;;;15.40;99.90;;;;;;5092280;28;20089;-84
2022/07/08 06:20:06;;;;;;;13.05;3.15;;;15.50;99.90;;;;;;5075117;28;20044;-84
2022/07/08 06:22:31;;;;;;;9.63;2.75;;;15.50;99.90;;;;;;5074728;28;20036;-84
2022/07/08 06:24:57;;;;;;;12.70;3.05;;;15.60;99.90;;;;;;5083468;28;20047;-84
2022/07/08 06:27:22;;;;;;;11.02;2.83;;;15.60;99.90;;;;;;5078697;28;20044;-84
2022/07/08 06:29:48;;;;;;;10.70;2.45;;;15.60;99.90;;;;;;5087163;28;20074;-84
2022/07/08 06:32:14;;;;;;;13.70;2.65;;;15.70;99.90;;;;;;5092187;28;20097;-84
2022/07/08 06:34:40;;;;;;;9.95;2.70;;;15.70;99.90;;;;;;5074234;28;20068;-84
2022/07/08 06:37:06;;;;;;;12.68;3.40;;;15.80;99.90;;;;;;5092358;28;20075;-84
2022/07/08 06:39:31;;;;;;;13.73;2.38;;;15.80;99.90;;;;;;5075068;28;20047;-84
2022/07/08 06:41:57;;;;;;;12.52;3.00;;;15.80;99.90;;;;;;5074025;28;20044;-84
2022/07/08 06:44:22;;;;;;;12.80;2.55;;;15.80;99.90;;;;;;5075146;28;20042;-84
2022/07/08 06:46:48;;;;;;;12.73;2.63;;;15.90;99.90;;;;;;5091069;28;20043;-84
2022/07/08 06:49:14;;;;;;;13.90;2.97;;;16.00;99.90;;;;;;5090531;28;20032;-84
2022/07/08 06:51:39;;;;;;;13.18;3.25;;;16.10;99.90;;;;;;5092121;28;20500;-84
2022/07/08 06:56:49;;;;;;;9.57;2.08;;;16.10;99.90;;;;;;5092135;28;20123;-83
2022/07/08 06:59:15;;;;;;;10.15;2.50;;;16.10;99.90;;;;;;5073246;28;20193;-84
2022/07/08 07:01:40;;;;;;;11.60;3.08;;;16.20;99.90;;;;;;5091499;28;20036;-83
2022/07/08 07:04:06;;;;;;;13.05;2.85;;;16.30;99.90;;;;;;5075168;28;20036;-83
2022/07/08 07:06:31;;;;;;;15.13;2.90;;;16.40;99.90;;;;;;5086100;28;20040;-84
2022/07/08 07:08:57;;;;;;;12.30;2.70;;;16.40;99.90;;;;;;5079579;28;20418;-83
2022/07/08 07:11:23;;;;;;;11.82;2.83;;;16.50;99.90;;;;;;5081630;28;20122;-84
2022/07/08 07:13:48;;;;;;;14.63;3.05;;;16.60;99.90;;;;;;5091040;28;20045;-83
2022/07/08 07:16:14;;;;;;;12.88;3.08;;;16.60;99.90;;;;;;5092764;28;20038;-83
2022/07/08 07:18:40;;;;;;;11.82;2.60;;;16.70;99.90;;;;;;5092438;28;20467;-84
2022/07/08 07:21:06;;;;;;;11.25;2.78;;;16.70;99.90;;;;;;5090828;28;20504;-83
2022/07/08 07:23:31;;;;;;;13.27;2.70;;;16.70;99.90;;;;;;5091247;28;20032;-83
2022/07/08 07:25:57;;;;;;;13.98;3.17;;;16.80;99.90;;;;;;5090835;28;20047;-84
2022/07/08 07:28:23;;;;;;;14.20;2.67;;;16.90;99.90;;;;;;5089811;28;20040;-84
2022/07/08 07:30:49;;;;;;;11.20;2.55;;;16.90;99.90;;;;;;5089844;28;20055;-83
2022/07/08 07:33:14;;;;;;;12.18;2.85;;;16.90;99.90;;;;;;5073890;28;20040;-84
2022/07/08 07:35:40;;;;;;;14.93;3.03;;;17.00;99.90;;;;;;5090772;28;20047;-84
2022/07/08 07:38:06;;;;;;;15.35;2.95;;;17.10;99.90;;;;;;5074374;28;20038;-84
2022/07/08 07:40:31;;;;;;;10.73;2.70;;;17.10;99.90;;;;;;5070021;28;20550;-84
2022/07/08 07:42:57;;;;;;;14.25;2.83;;;17.10;99.90;;;;;;5100496;28;20051;-84
2022/07/08 07:45:22;;;;;;;11.15;2.90;;;17.20;99.90;;;;;;5078831;28;20413;-84
2022/07/08 07:47:48;;;;;;;10.05;2.63;;;17.20;99.90;;;;;;5060779;28;20575;-84
2022/07/08 07:50:14;;;;;;;11.77;2.35;;;17.20;99.90;;;;;;5081415;28;20077;-84
2022/07/08 07:52:39;;;;;;;10.68;2.53;;;17.20;99.90;;;;;;5071468;28;20039;-83
2022/07/08 07:55:06;;;;;;;12.25;2.47;;;17.20;99.90;;;;;;5106753;28;20124;-83
2022/07/08 07:57:31;;;;;;;9.05;2.22;;;17.20;99.90;;;;;;5089249;28;20574;-84
2022/07/08 07:59:57;;;;;;;9.98;2.47;;;17.30;99.90;;;;;;5087279;28;20131;-84
2022/07/08 08:02:23;;;;;;;15.07;2.80;;;17.30;99.90;;;;;;5089555;28;20520;-83
2022/07/08 08:04:48;;;;;;;14.32;3.28;;;17.40;99.90;;;;;;5090323;28;20043;-83
2022/07/08 08:07:14;;;;;;;12.50;3.15;;;17.40;99.90;;;;;;5084575;28;20126;-83
2022/07/08 08:09:39;;;;;;;11.65;2.58;;;17.40;99.90;;;;;;5105239;28;20028;-84
2022/07/08 08:12:05;;;;;;;12.25;3.05;;;17.50;99.90;;;;;;5088986;28;20437;-84
2022/07/08 08:14:31;;;;;;;11.18;2.70;;;17.50;99.90;;;;;;5075419;28;20028;-84
2022/07/08 08:16:56;;;;;;;13.05;2.65;;;17.50;99.90;;;;;;5089421;28;20619;-84
2022/07/08 08:19:22;;;;;;;12.77;2.72;;;17.50;99.90;;;;;;5072821;28;20452;-83
2022/07/08 08:21:48;;;;;;;9.82;2.30;;;17.60;99.90;;;;;;5072051;28;20028;-84
2022/07/08 08:24:13;;;;;;;11.05;2.60;;;17.60;99.90;;;;;;5073615;28;20062;-83
2022/07/08 08:26:39;;;;;;;7.45;2.08;;;17.60;99.90;;;;;;5090181;28;20512;-84
2022/07/08 08:29:04;;;;;;;14.88;2.70;;;17.50;99.90;;;;;;5088811;28;20529;-84
2022/07/08 08:31:30;;;;;;;10.20;2.75;;;17.60;99.90;;;;;;5089139;28;20036;-84
2022/07/08 08:33:55;;;;;;;17.88;3.58;;;17.60;99.90;;;;;;5088897;28;20040;-84
2022/07/08 08:36:23;;;;;;;12.25;2.63;;;17.70;99.90;;;;;;5073266;28;20100;-84
2022/07/08 08:38:50;;;;;;;10.93;2.33;;;17.70;99.90;;;;;;5089262;28;20043;-84
2022/07/08 08:41:16;;;;;;;10.63;2.53;;;17.70;99.90;;;;;;5088790;28;20040;-84
2022/07/08 08:43:41;;;;;;;12.27;2.80;;;17.70;99.90;;;;;;5072906;28;20374;-83
2022/07/08 08:46:10;;;;;;;14.10;2.90;;;17.70;99.90;;;;;;5088283;28;20497;-84
2022/07/08 08:48:37;;;;;;;13.10;3.42;;;17.70;99.90;;;;;;5071313;28;20071;-84
2022/07/08 08:51:07;;;;;;;10.93;2.85;;;17.70;99.90;;;;;;5088503;28;20492;-84
2022/07/08 08:53:42;;;;;;;10.38;2.83;;;17.70;99.90;;;;;;5072234;28;20040;-84
2022/07/08 08:56:12;;;;;;;13.38;3.35;;;17.80;99.90;;;;;;5089368;28;20044;-84
2022/07/08 08:58:46;;;;;;;11.25;2.95;;;17.80;99.90;;;;;;5089453;28;20044;-84
2022/07/08 09:01:16;;;;;;;12.35;2.85;;;17.90;99.90;;;;;;5072828;28;20058;-84
2022/07/08 09:03:42;;;;;;;11.98;3.03;;;18.00;99.90;;;;;;5088982;28;20048;-84
2022/07/08 09:06:08;;;;;;;10.35;2.75;;;18.10;99.90;;;;;;5072965;28;20130;-85
2022/07/08 09:08:36;;;;;;;10.07;2.40;;;18.20;99.90;;;;;;5069596;28;20036;-85
2022/07/08 09:11:02;;;;;;;12.02;2.80;;;18.40;99.90;;;;;;5071298;28;20040;-84
2022/07/08 09:13:28;;;;;;;15.00;3.40;;;18.50;99.90;;;;;;5072093;28;20401;-84
2022/07/08 09:15:57;;;;;;;11.15;2.60;;;18.50;99.90;;;;;;5088528;28;20032;-85
2022/07/08 09:18:38;;;;;;;14.40;2.90;;;18.50;99.90;;;;;;5072029;28;20444;-85
2022/07/08 09:21:04;;;;;;;9.88;2.58;;;18.60;99.90;;;;;;5088575;28;20540;-85
2022/07/08 09:23:36;;;;;;;12.10;2.95;;;18.60;99.90;;;;;;5087846;28;20044;-85
2022/07/08 09:26:07;;;;;;;9.70;2.40;;;18.60;99.90;;;;;;5089462;28;20479;-85
2022/07/08 09:28:41;;;;;;;15.30;3.75;;;18.70;99.90;;;;;;5087641;28;20086;-84
2022/07/08 09:31:09;;;;;;;10.00;2.95;;;18.70;99.90;;;;;;5071440;28;20082;-84
2022/07/08 09:33:35;;;;;;;9.35;2.50;;;18.70;99.90;;;;;;5088416;28;20036;-85
2022/07/08 09:36:03;;;;;;;10.05;2.50;;;18.80;99.90;;;;;;5071199;28;20114;-85
2022/07/08 09:38:34;;;;;;;10.93;3.25;;;18.90;99.90;;;;;;5072690;28;20462;-85
2022/07/08 09:41:12;;;;;;;12.60;2.92;;;18.90;99.90;;;;;;5087890;28;20409;-85
2022/07/08 09:43:46;;;;;;;12.70;3.35;;;18.90;99.90;;;;;;5106437;28;20496;-84
2022/07/08 09:46:12;;;;;;;12.48;3.33;;;18.90;99.90;;;;;;5088896;28;20040;-84
2022/07/08 09:48:38;;;;;;;11.10;3.42;;;18.80;99.90;;;;;;5070414;28;20044;-84
2022/07/08 09:51:07;;;;;;;12.05;2.90;;;18.80;99.90;;;;;;5088302;28;20449;-85
2022/07/08 09:53:34;;;;;;;10.68;3.45;;;18.80;99.90;;;;;;5088655;28;20130;-84
2022/07/08 09:56:00;;;;;;;11.98;3.38;;;18.80;99.90;;;;;;5088312;28;20042;-84
2022/07/08 09:58:28;;;;;;;11.23;2.75;;;18.80;99.90;;;;;;5072660;28;20091;-84
2022/07/08 10:00:55;;;;;;;10.80;2.80;;;18.80;99.90;;;;;;5089029;28;20036;-85
2022/07/08 10:03:22;;;;;;;10.35;2.90;;;18.80;99.90;;;;;;5089480;28;20469;-84
2022/07/08 10:05:48;;;;;;;10.35;2.90;;;18.90;99.90;;;;;;5088796;28;20036;-84
2022/07/08 10:08:16;;;;;;;10.00;3.05;;;18.90;99.90;;;;;;5087923;28;20135;-85
2022/07/08 10:10:43;;;;;;;11.45;3.17;;;18.90;99.90;;;;;;5087814;28;20062;-85
2022/07/08 10:13:09;;;;;;;12.35;3.08;;;19.00;99.90;;;;;;5070404;28;20033;-85
2022/07/08 10:15:36;;;;;;;11.98;2.97;;;19.00;99.90;;;;;;5088115;28;20113;-84
2022/07/08 10:18:36;;;;;;;9.15;3.05;;;19.10;99.90;;;;;;5071500;28;20044;-84
2022/07/08 10:21:04;;;;;;;10.90;3.05;;;19.20;99.90;;;;;;5033460;28;20401;-84
2022/07/08 10:23:44;;;;;;;11.32;3.20;;;19.10;99.90;;;;;;5088943;28;20051;-85
2022/07/08 10:26:11;;;;;;;11.48;3.58;;;19.10;99.90;;;;;;5087964;28;20147;-85
2022/07/08 10:28:38;;;;;;;11.45;3.33;;;19.10;99.90;;;;;;5087380;28;20490;-84
2022/07/08 10:31:21;;;;;;;13.55;3.15;;;19.00;99.90;;;;;;5070708;28;20508;-84
2022/07/08 10:33:47;;;;;;;10.43;2.90;;;19.10;99.90;;;;;;5089339;28;20063;-85
2022/07/08 10:36:13;;;;;;;13.05;3.20;;;19.10;99.90;;;;;;5091676;28;20098;-85
2022/07/08 10:38:43;;;;;;;10.93;2.97;;;19.20;99.90;;;;;;5075260;28;20064;-85
2022/07/08 10:41:11;;;;;;;10.88;2.80;;;19.30;99.90;;;;;;5092999;28;20036;-85
2022/07/08 10:43:48;;;;;;;12.45;3.15;;;19.30;99.90;;;;;;5092038;28;20504;-85
2022/07/08 10:46:16;;;;;;;11.02;2.70;;;19.30;99.90;;;;;;5065767;28;20501;-84
2022/07/08 10:48:43;;;;;;;10.48;2.90;;;19.40;99.90;;;;;;5096461;28;20048;-84
2022/07/08 10:51:18;;;;;;;11.25;3.38;;;19.50;99.90;;;;;;5091551;28;20085;-84
2022/07/08 10:53:47;;;;;;;10.52;2.67;;;19.60;99.90;;;;;;5092641;28;20040;-84
2022/07/08 10:56:32;;;;;;;12.27;2.60;;;19.60;99.90;;;;;;5074538;28;20039;-84
2022/07/08 10:59:17;;;;;;;9.80;3.25;;;19.70;99.90;;;;;;5092792;28;20050;-83
2022/07/08 11:01:48;;;;;;;10.35;2.88;;;19.70;99.90;;;;;;5076183;28;20044;-84
2022/07/08 11:04:28;;;;;;;11.73;2.78;;;19.80;99.90;;;;;;5096649;28;20516;-84
2022/07/08 11:07:29;;;;;;;10.45;2.70;;;20.00;99.90;;;;;;5092745;28;20200;-84
2022/07/08 11:10:13;;;;;;;10.75;2.60;;;20.10;99.90;;;;;;5083634;28;20040;-84
2022/07/08 11:12:45;;;;;;;9.30;2.85;;;20.20;99.90;;;;;;5070995;28;20111;-85
2022/07/08 11:15:18;;;;;;;7.97;2.42;;;20.30;99.90;;;;;;5091040;28;20040;-84
2022/07/08 11:17:46;;;;;;;9.77;2.78;;;20.40;99.90;;;;;;5091843;28;20046;-85
2022/07/08 11:20:14;;;;;;;9.60;2.55;;;20.30;99.90;;;;;;5090258;28;20509;-85
2022/07/08 11:22:42;;;;;;;10.98;2.70;;;20.30;99.90;;;;;;5091536;28;20044;-84
2022/07/08 11:25:10;;;;;;;9.90;2.70;;;20.30;99.90;;;;;;5074499;28;20518;-85
2022/07/08 11:27:36;;;;;;;8.45;2.63;;;20.30;99.90;;;;;;5074640;28;20177;-85
2022/07/08 11:30:05;;;;;;;9.50;2.60;;;20.30;99.90;;;;;;5072658;28;20395;-84
2022/07/08 11:32:31;;;;;;;10.60;2.65;;;20.30;99.90;;;;;;5072594;28;20032;-84
2022/07/08 11:34:57;;;;;;;10.82;2.90;;;20.40;99.90;;;;;;5092615;28;20040;-85
2022/07/08 11:37:23;;;;;;;8.82;2.55;;;20.40;99.90;;;;;;5090389;28;20595;-85
2022/07/08 11:39:49;;;;;;;12.23;2.90;;;20.50;99.90;;;;;;5073786;28;20080;-84
2022/07/08 11:42:16;;;;;;;9.85;2.95;;;20.60;99.90;;;;;;5073901;28;20126;-85
2022/07/08 11:44:42;;;;;;;11.40;2.83;;;20.80;99.90;;;;;;5090003;28;20048;-85
2022/07/08 11:47:15;;;;;;;10.52;3.13;;;20.70;99.90;;;;;;5073794;28;20086;-85
2022/07/08 11:49:45;;;;;;;12.07;3.53;;;20.70;99.90;;;;;;5087878;28;20044;-84
2022/07/08 11:52:11;;;;;;;10.40;3.20;;;20.80;99.90;;;;;;5081210;28;20033;-85
2022/07/08 11:54:37;;;;;;;12.02;2.95;;;20.80;99.90;;;;;;5070314;28;20032;-85
2022/07/08 11:57:04;;;;;;;9.43;3.17;;;20.80;99.90;;;;;;5083048;28;20436;-84
2022/07/08 11:59:32;;;;;;;11.23;2.95;;;20.80;99.90;;;;;;5073887;28;20036;-84
2022/07/08 12:01:59;;;;;;;12.27;3.20;;;21.00;99.90;;;;;;5090559;28;20043;-85
2022/07/08 12:04:25;;;;;;;10.85;3.40;;;21.10;99.90;;;;;;5090393;28;20038;-85
2022/07/08 12:06:53;;;;;;;10.32;2.70;;;21.20;99.90;;;;;;5090445;28;20077;-85
2022/07/08 12:09:20;;;;;;;11.40;3.30;;;21.40;99.90;;;;;;5089358;28;20047;-85
2022/07/08 12:11:48;;;;;;;9.02;3.08;;;21.50;99.90;;;;;;5072508;28;20032;-85
2022/07/08 12:14:14;;;;;;;12.10;3.28;;;21.50;99.90;;;;;;5068397;28;20062;-84
2022/07/08 12:16:44;;;;;;;10.98;2.85;;;21.40;99.90;;;;;;5098006;28;20119;-85
2022/07/08 12:19:30;;;;;;;10.68;3.17;;;21.40;99.90;;;;;;5104478;28;20081;-85
2022/07/08 12:22:00;;;;;;;9.18;3.10;;;21.60;99.90;;;;;;5091385;28;20043;-85
2022/07/08 12:24:32;;;;;;;11.07;2.83;;;21.80;99.90;;;;;;5089560;28;20032;-85
2022/07/08 12:26:59;;;;;;;;;;;21.90;99.90;;;;;;5090713;28;20047;-85
2022/07/08 12:29:31;;;;;;;9.90;3.00;;;21.90;99.90;;;;;;5071683;28;19927;-85
2022/07/08 12:31:57;;;;;;;;;;;22.20;99.90;;;;;;5098542;28;20032;-85
2022/07/08 12:34:23;;;;;;;9.57;3.10;;;22.20;99.90;;;;;;5089529;28;19977;-85
2022/07/08 12:36:50;;;;;;;15.05;3.22;;;22.20;99.90;;;;;;5072157;28;20082;-85
2022/07/08 12:39:19;;;;;;;12.00;3.13;;;22.20;99.90;;;;;;5088984;28;20504;-85
2022/07/08 12:42:05;;;;;;;10.75;2.80;;;22.40;99.90;;;;;;5080427;28;20154;-85
2022/07/08 12:44:38;;;;;;;10.20;3.20;;;22.60;99.90;;;;;;5068912;28;20089;-85
2022/07/08 12:47:05;;;;;;;8.38;2.60;;;22.60;99.90;;;;;;5089879;28;20048;-85